Terminal Aerodrome Forecast
Issued by NWS

Home | Current Version | Previous Version | Text Only | Print | Product List | Glossary Off
Versions: 1 2 3 4 5 6 7 8 9 10 11 12 13 14 15 16 17 18 19 20 21 22 23 24 25 26

131
FTUS43 KBIS 150002 AAA
TAFMOT
TAF AMD
KMOT 150002Z 1500/1524 29014G21KT P6SM BKN200
      TEMPO 1501/1502 30018G28KT SCT015 BKN035
     FM150200 31017G25KT P6SM BKN017 OVC035
     FM151000 31015KT P6SM SCT025 BKN040
     FM151700 32009KT P6SM SCT030 SCT050
     FM152100 36007KT P6SM SCT250
     FM152200 02007KT P6SM BKN250=

USA.gov is the U.S. government's official web portal to all federal, state and local government web resources and services.